createdAt,value
2018-09-18T00:00:11.105Z,1019.40
2018-09-18T00:01:38.733Z,1019.40
2018-09-18T00:03:05.361Z,1019.38
2018-09-18T00:04:32.448Z,1019.37
2018-09-18T00:05:59.907Z,1019.34
2018-09-18T00:07:27.279Z,1019.32
2018-09-18T00:09:02.633Z,1019.31
2018-09-18T00:10:21.976Z,1019.31
2018-09-18T00:11:49.402Z,1019.34
2018-09-18T00:13:16.849Z,1019.34
2018-09-18T00:14:44.243Z,1019.34
2018-09-18T00:16:11.593Z,1019.34
2018-09-18T00:17:38.945Z,1019.33
2018-09-18T00:19:06.342Z,1019.33
2018-09-18T00:20:33.713Z,1019.32
2018-09-18T00:22:00.122Z,1019.29
2018-09-18T00:23:27.592Z,1019.28
2018-09-18T00:24:54.720Z,1019.25
2018-09-18T00:26:20.852Z,1019.24
2018-09-18T00:27:48.186Z,1019.22
2018-09-18T00:29:15.551Z,1019.20
2018-09-18T00:30:42.909Z,1019.21
2018-09-18T00:32:09.729Z,1019.20
2018-09-18T00:33:36.514Z,1019.20
2018-09-18T00:35:03.346Z,1019.17
2018-09-18T00:36:30.734Z,1019.17
2018-09-18T00:37:57.220Z,1019.14
2018-09-18T00:39:24.565Z,1019.12
2018-09-18T00:40:53.074Z,1019.11
2018-09-18T00:42:18.417Z,1019.08
2018-09-18T00:43:45.858Z,1019.05
2018-09-18T00:45:12.348Z,1019.03
2018-09-18T00:46:39.152Z,1018.99
2018-09-18T00:48:05.984Z,1018.96
2018-09-18T00:49:32.578Z,1018.98
2018-09-18T00:51:00.122Z,1018.96
2018-09-18T00:52:27.353Z,1018.96
2018-09-18T00:53:54.843Z,1018.96
2018-09-18T00:55:21.274Z,1018.95
2018-09-18T00:56:48.830Z,1018.95
2018-09-18T00:58:16.345Z,1018.94
2018-09-18T00:59:43.003Z,1018.94
2018-09-18T01:01:09.687Z,1018.92
2018-09-18T01:02:36.406Z,1018.91
2018-09-18T01:04:04.530Z,1018.92
2018-09-18T01:05:29.904Z,1018.93
2018-09-18T01:06:57.248Z,1018.92
2018-09-18T01:08:24.580Z,1018.90
2018-09-18T01:09:51.912Z,1018.89
2018-09-18T01:11:19.476Z,1018.91
2018-09-18T01:12:46.889Z,1018.88
2018-09-18T01:14:14.149Z,1018.87
2018-09-18T01:15:41.776Z,1018.85
2018-09-18T01:17:08.908Z,1018.84
2018-09-18T01:18:36.342Z,1018.84
2018-09-18T01:20:03.503Z,1018.85
2018-09-18T01:21:30.713Z,1018.84
2018-09-18T01:22:58.269Z,1018.82
2018-09-18T01:24:24.724Z,1018.83
2018-09-18T01:25:51.873Z,1018.85
2018-09-18T01:27:19.271Z,1018.86
2018-09-18T01:28:45.959Z,1018.88
2018-09-18T01:30:13.397Z,1018.88
2018-09-18T01:31:40.724Z,1018.87
2018-09-18T01:33:07.761Z,1018.85
2018-09-18T01:34:34.343Z,1018.84
2018-09-18T01:36:01.079Z,1018.82
2018-09-18T01:37:27.591Z,1018.80
2018-09-18T01:38:55.045Z,1018.85
2018-09-18T01:40:21.461Z,1018.87
2018-09-18T01:41:48.914Z,1018.83
2018-09-18T01:43:16.113Z,1018.86
2018-09-18T01:44:43.393Z,1018.84
2018-09-18T01:46:09.944Z,1018.85
2018-09-18T01:47:36.626Z,1018.86
2018-09-18T01:49:03.966Z,1018.86
2018-09-18T01:50:31.301Z,1018.86
2018-09-18T01:51:58.704Z,1018.84
2018-09-18T01:53:26.109Z,1018.82
2018-09-18T01:54:53.652Z,1018.83
2018-09-18T01:56:19.756Z,1018.84
2018-09-18T01:57:47.215Z,1018.86
2018-09-18T01:59:14.596Z,1018.87
2018-09-18T02:00:42.889Z,1018.88
2018-09-18T02:02:11.332Z,1018.87
2018-09-18T02:03:34.702Z,1018.86
2018-09-18T02:05:01.094Z,1018.83
2018-09-18T02:06:28.419Z,1018.79
2018-09-18T02:07:55.848Z,1018.78
2018-09-18T02:09:23.284Z,1018.75
2018-09-18T02:10:50.785Z,1018.73
2018-09-18T02:12:17.044Z,1018.72
2018-09-18T02:13:43.353Z,1018.71
2018-09-18T02:15:10.539Z,1018.71
2018-09-18T02:16:37.956Z,1018.70
2018-09-18T02:18:05.176Z,1018.70
2018-09-18T02:19:32.107Z,1018.69
2018-09-18T02:20:59.345Z,1018.67
2018-09-18T02:22:26.883Z,1018.66
2018-09-18T02:23:54.307Z,1018.66
2018-09-18T02:25:21.658Z,1018.64
2018-09-18T02:26:49.020Z,1018.62
2018-09-18T02:28:16.337Z,1018.61
2018-09-18T02:29:43.760Z,1018.61
2018-09-18T02:31:10.219Z,1018.61
2018-09-18T02:32:37.542Z,1018.61
2018-09-18T02:34:04.241Z,1018.60
2018-09-18T02:35:31.449Z,1018.61
2018-09-18T02:36:58.924Z,1018.60
2018-09-18T02:38:25.364Z,1018.63
2018-09-18T02:39:52.741Z,1018.61
2018-09-18T02:41:20.126Z,1018.61
2018-09-18T02:42:47.649Z,1018.62
2018-09-18T02:44:14.862Z,1018.61
2018-09-18T02:45:42.422Z,1018.59
2018-09-18T02:47:09.828Z,1018.59
2018-09-18T02:48:37.267Z,1018.59
2018-09-18T02:50:04.782Z,1018.58
2018-09-18T02:51:31.371Z,1018.55
2018-09-18T02:52:57.724Z,1018.54
2018-09-18T02:54:25.080Z,1018.54
2018-09-18T02:55:51.586Z,1018.53
2018-09-18T02:57:18.737Z,1018.54
2018-09-18T02:58:46.318Z,1018.54
2018-09-18T03:00:13.551Z,1018.56
2018-09-18T03:01:40.207Z,1018.55
2018-09-18T03:03:06.673Z,1018.52
2018-09-18T03:04:33.909Z,1018.50
2018-09-18T03:06:01.308Z,1018.50
2018-09-18T03:07:28.780Z,1018.50
2018-09-18T03:08:55.937Z,1018.49
2018-09-18T03:10:23.143Z,1018.48
2018-09-18T03:11:49.804Z,1018.49
2018-09-18T03:13:16.963Z,1018.48
2018-09-18T03:14:44.413Z,1018.51
2018-09-18T03:16:11.570Z,1018.50
2018-09-18T03:17:38.976Z,1018.51
2018-09-18T03:19:05.439Z,1018.50
2018-09-18T03:20:32.786Z,1018.48
2018-09-18T03:22:00.104Z,1018.45
2018-09-18T03:23:27.532Z,1018.46
2018-09-18T03:24:53.855Z,1018.45
2018-09-18T03:26:21.487Z,1018.45
2018-09-18T03:27:48.903Z,1018.43
2018-09-18T03:29:15.459Z,1018.42
2018-09-18T03:30:42.020Z,1018.41
2018-09-18T03:32:08.374Z,1018.41
2018-09-18T03:33:35.902Z,1018.40
2018-09-18T03:36:29.450Z,1018.39
2018-09-18T03:37:55.792Z,1018.39
2018-09-18T03:39:23.117Z,1018.40
2018-09-18T03:40:49.324Z,1018.38
2018-09-18T03:42:15.615Z,1018.37
2018-09-18T03:43:41.630Z,1018.36
2018-09-18T03:45:08.131Z,1018.35
2018-09-18T03:46:34.670Z,1018.33
2018-09-18T03:48:02.006Z,1018.30
2018-09-18T03:49:29.398Z,1018.29
2018-09-18T03:50:55.409Z,1018.28
2018-09-18T03:52:22.954Z,1018.25
2018-09-18T03:53:50.096Z,1018.23
2018-09-18T03:55:17.540Z,1018.21
2018-09-18T03:56:43.761Z,1018.21
2018-09-18T03:58:10.279Z,1018.21
2018-09-18T03:59:37.606Z,1018.20
2018-09-18T04:01:04.935Z,1018.21
2018-09-18T04:02:32.167Z,1018.21
2018-09-18T04:03:59.519Z,1018.18
2018-09-18T04:05:26.922Z,1018.18
2018-09-18T04:06:54.105Z,1018.20
2018-09-18T04:08:21.413Z,1018.18
2018-09-18T04:09:49.014Z,1018.17
2018-09-18T04:11:16.511Z,1018.17
2018-09-18T04:12:43.578Z,1018.15
2018-09-18T04:14:09.962Z,1018.13
2018-09-18T04:15:37.025Z,1018.14
2018-09-18T04:17:04.552Z,1018.14
2018-09-18T04:18:32.061Z,1018.11
2018-09-18T04:19:58.312Z,1018.10
2018-09-18T04:21:25.799Z,1018.10
2018-09-18T04:22:53.177Z,1018.11
2018-09-18T04:24:19.517Z,1018.08
2018-09-18T04:25:46.941Z,1018.08
2018-09-18T04:27:14.438Z,1018.06
2018-09-18T04:28:44.493Z,1018.05
2018-09-18T04:30:07.674Z,1018.05
2018-09-18T04:31:35.429Z,1018.04
2018-09-18T04:33:00.846Z,1018.04
2018-09-18T04:34:28.009Z,1018.02
2018-09-18T04:35:55.366Z,1018.01
2018-09-18T04:37:22.583Z,1018.02
2018-09-18T04:38:49.019Z,1018.02
2018-09-18T04:40:16.450Z,1018.02
2018-09-18T04:41:44.566Z,1018.03
2018-09-18T04:43:10.311Z,1018.04
2018-09-18T04:44:37.435Z,1018.01
2018-09-18T04:46:12.789Z,1018.00
2018-09-18T04:47:31.468Z,1017.98
2018-09-18T04:48:58.612Z,1017.96
2018-09-18T04:50:26.055Z,1017.95
2018-09-18T04:52:01.286Z,1017.93
2018-09-18T04:53:20.538Z,1017.94
2018-09-18T04:54:46.476Z,1017.92
2018-09-18T04:56:12.615Z,1017.93
2018-09-18T04:57:39.963Z,1017.94
2018-09-18T04:59:07.323Z,1017.95
2018-09-18T05:00:33.937Z,1017.94
2018-09-18T05:02:01.547Z,1017.95
2018-09-18T05:03:28.522Z,1017.96
2018-09-18T05:04:55.967Z,1017.98
2018-09-18T05:06:31.478Z,1018.00
2018-09-18T05:07:49.647Z,1018.00
2018-09-18T05:09:16.985Z,1018.00
2018-09-18T05:10:44.457Z,1017.99
2018-09-18T05:12:11.991Z,1018.00
2018-09-18T05:13:38.304Z,1017.99
2018-09-18T05:15:05.839Z,1017.97
2018-09-18T05:16:33.136Z,1017.97
2018-09-18T05:17:59.758Z,1017.98
2018-09-18T05:19:26.911Z,1017.96
2018-09-18T05:20:53.008Z,1017.96
2018-09-18T05:22:19.323Z,1017.96
2018-09-18T05:23:46.746Z,1017.96
2018-09-18T05:25:13.930Z,1017.92
2018-09-18T05:26:41.511Z,1017.92
2018-09-18T05:28:08.994Z,1017.90
2018-09-18T05:29:35.699Z,1017.88
2018-09-18T05:31:01.771Z,1017.86
2018-09-18T05:32:29.078Z,1017.88
2018-09-18T05:33:56.481Z,1017.89
2018-09-18T05:35:23.796Z,1017.91
2018-09-18T05:36:51.083Z,1017.92
2018-09-18T05:38:18.625Z,1017.90
2018-09-18T05:39:45.989Z,1017.89
2018-09-18T05:41:13.321Z,1017.89
2018-09-18T05:42:40.766Z,1017.89
2018-09-18T05:44:07.088Z,1017.91
2018-09-18T05:45:34.176Z,1017.88
2018-09-18T05:47:01.560Z,1017.88
2018-09-18T05:48:29.175Z,1017.88
2018-09-18T05:49:55.621Z,1017.88
2018-09-18T05:51:21.872Z,1017.87
2018-09-18T05:52:48.419Z,1017.89
2018-09-18T05:54:15.819Z,1017.89
2018-09-18T05:55:43.288Z,1017.91
2018-09-18T05:57:10.723Z,1017.90
2018-09-18T05:58:37.887Z,1017.88
2018-09-18T06:00:13.316Z,1017.88
2018-09-18T06:01:31.595Z,1017.85
2018-09-18T06:02:57.852Z,1017.85
2018-09-18T06:04:25.165Z,1017.85
2018-09-18T06:05:52.631Z,1017.84
2018-09-18T06:07:19.127Z,1017.86
2018-09-18T06:08:45.452Z,1017.83
2018-09-18T06:10:12.692Z,1017.83
2018-09-18T06:11:39.987Z,1017.83
2018-09-18T06:13:06.676Z,1017.79
2018-09-18T06:14:32.867Z,1017.81
2018-09-18T06:16:00.276Z,1017.80
2018-09-18T06:17:27.551Z,1017.79
2018-09-18T06:18:54.957Z,1017.77
2018-09-18T06:20:22.420Z,1017.78
2018-09-18T06:21:49.723Z,1017.81
2018-09-18T06:23:17.014Z,1017.75
2018-09-18T06:24:44.635Z,1017.77
2018-09-18T06:26:11.933Z,1017.78
2018-09-18T06:27:39.476Z,1017.77
2018-09-18T06:29:06.555Z,1017.77
2018-09-18T06:30:33.807Z,1017.73
2018-09-18T06:32:01.244Z,1017.74
2018-09-18T06:33:28.481Z,1017.75
2018-09-18T06:34:55.761Z,1017.74
2018-09-18T06:36:22.006Z,1017.74
2018-09-18T06:37:49.424Z,1017.74
2018-09-18T06:39:16.800Z,1017.73
2018-09-18T06:40:43.145Z,1017.74
2018-09-18T06:42:10.625Z,1017.74
2018-09-18T06:43:36.704Z,1017.76
2018-09-18T06:45:03.162Z,1017.77
2018-09-18T06:46:30.599Z,1017.75
2018-09-18T06:47:58.248Z,1017.74
2018-09-18T06:49:24.223Z,1017.72
2018-09-18T06:50:51.785Z,1017.70
2018-09-18T06:52:19.127Z,1017.68
2018-09-18T06:53:45.460Z,1017.67
2018-09-18T06:55:12.620Z,1017.72
2018-09-18T06:56:38.984Z,1017.68
2018-09-18T06:58:06.257Z,1017.67
2018-09-18T06:59:33.573Z,1017.68
2018-09-18T07:01:01.018Z,1017.66
2018-09-18T07:02:28.444Z,1017.65
2018-09-18T07:03:55.689Z,1017.66
2018-09-18T07:05:23.341Z,1017.66
2018-09-18T07:06:50.716Z,1017.65
2018-09-18T07:08:18.035Z,1017.63
2018-09-18T07:11:11.955Z,1017.66
2018-09-18T07:12:39.247Z,1017.65
2018-09-18T07:14:09.130Z,1017.67
2018-09-18T07:15:32.510Z,1017.64
2018-09-18T07:17:00.136Z,1017.63
2018-09-18T07:18:27.555Z,1017.60
2018-09-18T07:19:55.106Z,1017.61
2018-09-18T07:21:22.598Z,1017.60
2018-09-18T07:22:49.980Z,1017.55
2018-09-18T07:24:17.625Z,1017.57
2018-09-18T07:25:44.849Z,1017.53
2018-09-18T07:27:12.265Z,1017.50
2018-09-18T07:28:39.881Z,1017.50
2018-09-18T07:30:06.809Z,1017.45
2018-09-18T07:31:34.150Z,1017.42
2018-09-18T07:33:04.610Z,1017.42
2018-09-18T07:34:29.197Z,1017.39
2018-09-18T07:35:56.587Z,1017.38
2018-09-18T07:37:24.223Z,1017.39
2018-09-18T07:38:50.758Z,1017.41
2018-09-18T07:40:18.148Z,1017.37
2018-09-18T07:41:47.469Z,1017.36
2018-09-18T07:43:11.797Z,1017.37
2018-09-18T07:44:38.134Z,1017.37
2018-09-18T07:46:05.557Z,1017.35
2018-09-18T07:47:33.043Z,1017.33
2018-09-18T07:49:00.649Z,1017.32
2018-09-18T07:50:28.020Z,1017.33
2018-09-18T07:51:55.436Z,1017.33
2018-09-18T07:53:22.911Z,1017.31
2018-09-18T07:54:50.151Z,1017.30
2018-09-18T07:56:17.693Z,1017.31
2018-09-18T07:57:45.141Z,1017.29
2018-09-18T07:59:12.512Z,1017.29
2018-09-18T08:00:39.782Z,1017.27
2018-09-18T08:02:07.522Z,1017.25
2018-09-18T08:03:33.448Z,1017.23
2018-09-18T08:05:00.691Z,1017.25
2018-09-18T08:06:28.184Z,1017.24
2018-09-18T08:07:55.595Z,1017.24
2018-09-18T08:09:22.903Z,1017.26
2018-09-18T08:10:49.636Z,1017.25
2018-09-18T08:12:17.186Z,1017.23
2018-09-18T08:13:43.792Z,1017.21
2018-09-18T08:15:11.289Z,1017.19
2018-09-18T08:16:38.512Z,1017.19
2018-09-18T08:18:05.365Z,1017.17
2018-09-18T08:19:33.264Z,1017.15
2018-09-18T08:21:00.462Z,1017.15
2018-09-18T08:22:28.007Z,1017.10
2018-09-18T08:23:55.601Z,1017.12
2018-09-18T08:25:23.085Z,1017.06
2018-09-18T08:26:50.573Z,1017.04
2018-09-18T08:28:18.110Z,1017.02
2018-09-18T08:29:44.653Z,1016.98
2018-09-18T08:31:12.252Z,1017.01
2018-09-18T08:32:47.927Z,1016.99
2018-09-18T08:34:06.805Z,1016.97
2018-09-18T08:35:34.362Z,1016.94
2018-09-18T08:37:01.829Z,1016.91
2018-09-18T08:38:29.513Z,1016.85
2018-09-18T08:39:57.118Z,1016.86
2018-09-18T08:41:24.426Z,1016.83
2018-09-18T08:42:51.883Z,1016.85
2018-09-18T08:44:27.364Z,1016.85
2018-09-18T08:45:46.945Z,1016.81
2018-09-18T08:47:14.366Z,1016.80
2018-09-18T08:48:41.647Z,1016.79
2018-09-18T08:50:09.089Z,1016.78
2018-09-18T08:51:36.419Z,1016.76
2018-09-18T08:53:04.222Z,1016.76
2018-09-18T08:54:31.770Z,1016.75
2018-09-18T08:55:59.284Z,1016.77
2018-09-18T08:57:26.771Z,1016.76
2018-09-18T08:58:54.529Z,1016.79
2018-09-18T09:00:22.002Z,1016.77
2018-09-18T09:01:49.651Z,1016.75
2018-09-18T09:03:16.318Z,1016.76
2018-09-18T09:04:43.848Z,1016.76
2018-09-18T09:06:11.516Z,1016.74
2018-09-18T09:07:42.003Z,1016.74
2018-09-18T09:09:06.436Z,1016.72
2018-09-18T09:10:33.971Z,1016.74
2018-09-18T09:12:01.468Z,1016.72
2018-09-18T09:13:28.958Z,1016.69
2018-09-18T09:14:56.630Z,1016.71
2018-09-18T09:16:24.112Z,1016.67
2018-09-18T09:17:51.649Z,1016.66
2018-09-18T09:19:19.237Z,1016.64
2018-09-18T09:20:46.739Z,1016.62
2018-09-18T09:22:13.612Z,1016.65
2018-09-18T09:23:40.910Z,1016.63
2018-09-18T09:25:08.122Z,1016.63
2018-09-18T09:26:35.665Z,1016.59
2018-09-18T09:28:03.205Z,1016.59
2018-09-18T09:29:30.762Z,1016.58
2018-09-18T09:30:58.275Z,1016.58
2018-09-18T09:32:25.774Z,1016.54
2018-09-18T09:33:53.157Z,1016.49
2018-09-18T09:35:20.739Z,1016.45
2018-09-18T09:36:47.346Z,1016.45
2018-09-18T09:38:14.845Z,1016.43
2018-09-18T09:39:42.426Z,1016.44
2018-09-18T09:41:09.778Z,1016.41
2018-09-18T09:42:37.032Z,1016.41
2018-09-18T09:44:04.506Z,1016.37
2018-09-18T09:45:31.916Z,1016.38
2018-09-18T09:46:59.326Z,1016.39
2018-09-18T09:48:26.775Z,1016.37
2018-09-18T09:49:53.248Z,1016.36
2018-09-18T09:51:20.988Z,1016.31
2018-09-18T09:52:48.273Z,1016.31
2018-09-18T09:54:15.929Z,1016.27
2018-09-18T09:55:43.346Z,1016.28
2018-09-18T09:57:10.665Z,1016.25
2018-09-18T09:58:38.163Z,1016.27
2018-09-18T10:00:05.218Z,1016.21
2018-09-18T10:01:32.776Z,1016.18
2018-09-18T10:02:59.594Z,1016.17
2018-09-18T10:04:27.138Z,1016.12
2018-09-18T10:05:54.689Z,1016.10
2018-09-18T10:07:22.153Z,1016.09
2018-09-18T10:08:49.873Z,1016.06
2018-09-18T10:10:17.420Z,1016.06
2018-09-18T10:11:45.050Z,1016.06
2018-09-18T10:13:12.060Z,1016.08
2018-09-18T10:14:39.796Z,1016.03
2018-09-18T10:16:06.802Z,1016.00
2018-09-18T10:17:34.303Z,1015.96
2018-09-18T10:19:01.894Z,1015.96
2018-09-18T10:20:28.817Z,1015.91
2018-09-18T10:21:56.400Z,1015.92
2018-09-18T10:23:23.473Z,1015.87
2018-09-18T10:24:50.873Z,1015.83
2018-09-18T10:26:18.501Z,1015.85
2018-09-18T10:27:45.916Z,1015.78
2018-09-18T10:29:12.748Z,1015.82
2018-09-18T10:30:40.220Z,1015.78
2018-09-18T10:32:07.956Z,1015.76
2018-09-18T10:33:35.360Z,1015.72
2018-09-18T10:35:02.990Z,1015.71
2018-09-18T10:36:29.722Z,1015.65
2018-09-18T10:37:57.338Z,1015.66
2018-09-18T10:39:24.590Z,1015.67
2018-09-18T10:40:51.203Z,1015.63
2018-09-18T10:42:18.720Z,1015.63
2018-09-18T10:43:46.381Z,1015.64
2018-09-18T10:45:13.362Z,1015.57
2018-09-18T10:46:40.789Z,1015.55
2018-09-18T10:48:08.363Z,1015.58
2018-09-18T10:49:35.693Z,1015.53
2018-09-18T10:51:03.159Z,1015.50
2018-09-18T10:52:30.668Z,1015.49
2018-09-18T10:53:58.231Z,1015.48
2018-09-18T10:55:25.023Z,1015.47
2018-09-18T10:56:52.623Z,1015.43
2018-09-18T10:58:20.226Z,1015.40
2018-09-18T10:59:47.757Z,1015.32
2018-09-18T11:01:15.399Z,1015.29
2018-09-18T11:02:43.008Z,1015.28
2018-09-18T11:04:10.574Z,1015.24
2018-09-18T11:05:38.213Z,1015.19
2018-09-18T11:07:05.760Z,1015.16
2018-09-18T11:08:33.405Z,1015.14
2018-09-18T11:10:01.171Z,1015.15
2018-09-18T11:11:28.703Z,1015.09
2018-09-18T11:12:56.278Z,1015.07
2018-09-18T11:14:23.841Z,1015.05
2018-09-18T11:15:51.575Z,1015.05
2018-09-18T11:17:18.962Z,1015.01
2018-09-18T11:18:45.711Z,1015.00
2018-09-18T11:20:13.501Z,1014.97
2018-09-18T11:21:40.090Z,1014.96
2018-09-18T11:23:06.793Z,1014.94
2018-09-18T11:24:33.851Z,1014.95
2018-09-18T11:26:01.205Z,1014.87
2018-09-18T11:27:28.304Z,1014.90
2018-09-18T11:28:55.813Z,1014.88
2018-09-18T11:30:23.594Z,1014.88
2018-09-18T11:31:51.145Z,1014.86
2018-09-18T11:33:18.794Z,1014.80
2018-09-18T11:34:45.920Z,1014.80
2018-09-18T11:36:12.748Z,1014.81
2018-09-18T11:37:40.171Z,1014.77
2018-09-18T11:39:07.364Z,1014.75
2018-09-18T11:40:35.011Z,1014.75
2018-09-18T11:42:02.240Z,1014.73
2018-09-18T11:43:29.870Z,1014.71
2018-09-18T11:44:57.606Z,1014.67
2018-09-18T11:46:24.459Z,1014.62
2018-09-18T11:47:52.103Z,1014.59
2018-09-18T11:49:18.960Z,1014.55
2018-09-18T11:50:46.623Z,1014.47
2018-09-18T11:52:13.116Z,1014.50
2018-09-18T11:53:40.825Z,1014.49
2018-09-18T11:55:08.266Z,1014.48
2018-09-18T11:56:35.373Z,1014.48
2018-09-18T11:58:03.000Z,1014.45
2018-09-18T11:59:30.496Z,1014.43
2018-09-18T12:00:58.175Z,1014.40
2018-09-18T12:02:25.840Z,1014.41
2018-09-18T12:03:53.469Z,1014.37
2018-09-18T12:05:21.166Z,1014.39
2018-09-18T12:06:48.632Z,1014.41
2018-09-18T12:08:16.414Z,1014.32
2018-09-18T12:09:44.085Z,1014.37
2018-09-18T12:11:11.464Z,1014.33
2018-09-18T12:12:39.095Z,1014.32
2018-09-18T12:14:06.712Z,1014.28
2018-09-18T12:15:33.991Z,1014.27
2018-09-18T12:17:01.630Z,1014.28
2018-09-18T12:18:28.602Z,1014.26
2018-09-18T12:19:56.265Z,1014.23
2018-09-18T12:21:23.433Z,1014.19
2018-09-18T12:22:50.925Z,1014.22
2018-09-18T12:24:18.613Z,1014.16
2018-09-18T12:25:45.891Z,1014.14
2018-09-18T12:27:13.480Z,1014.11
2018-09-18T12:28:40.944Z,1014.08
2018-09-18T12:30:08.620Z,1014.10
2018-09-18T12:31:36.127Z,1014.09
2018-09-18T12:33:03.077Z,1014.02
2018-09-18T12:34:30.431Z,1014.07
2018-09-18T12:35:58.203Z,1014.03
2018-09-18T12:37:25.896Z,1014.06
2018-09-18T12:38:53.180Z,1014.05
2018-09-18T12:40:19.730Z,1014.06
2018-09-18T12:41:47.537Z,1014.06
2018-09-18T12:43:15.028Z,1014.04
2018-09-18T12:44:42.503Z,1014.01
2018-09-18T12:46:10.076Z,1013.99
2018-09-18T12:47:37.798Z,1013.97
2018-09-18T12:49:05.477Z,1013.93
2018-09-18T12:50:33.248Z,1013.92
2018-09-18T12:52:00.905Z,1013.88
2018-09-18T12:53:28.660Z,1013.87
2018-09-18T12:54:56.483Z,1013.86
2018-09-18T12:56:23.846Z,1013.81
2018-09-18T12:57:51.597Z,1013.77
2018-09-18T12:59:19.134Z,1013.79
2018-09-18T13:00:46.659Z,1013.74
2018-09-18T13:02:14.372Z,1013.70
2018-09-18T13:03:41.900Z,1013.71
2018-09-18T13:05:09.421Z,1013.72
2018-09-18T13:06:37.259Z,1013.68
2018-09-18T13:08:04.742Z,1013.65
2018-09-18T13:09:32.307Z,1013.65
2018-09-18T13:11:00.100Z,1013.67
2018-09-18T13:12:27.339Z,1013.66
2018-09-18T13:13:55.070Z,1013.70
2018-09-18T13:15:22.705Z,1013.69
2018-09-18T13:16:50.289Z,1013.62
2018-09-18T13:18:17.082Z,1013.66
2018-09-18T13:19:44.646Z,1013.62
2018-09-18T13:21:12.237Z,1013.61
2018-09-18T13:22:39.971Z,1013.61
2018-09-18T13:24:07.074Z,1013.58
2018-09-18T13:25:34.569Z,1013.58
2018-09-18T13:27:02.157Z,1013.56
2018-09-18T13:28:28.973Z,1013.56
2018-09-18T13:29:56.701Z,1013.53
2018-09-18T13:31:24.315Z,1013.53
2018-09-18T13:32:51.907Z,1013.49
2018-09-18T13:34:19.749Z,1013.49
2018-09-18T13:35:47.404Z,1013.44
2018-09-18T13:37:15.026Z,1013.45
2018-09-18T13:38:42.695Z,1013.42
2018-09-18T13:40:10.256Z,1013.40
2018-09-18T13:41:37.384Z,1013.38
2018-09-18T13:43:04.928Z,1013.43
2018-09-18T13:44:32.203Z,1013.41
2018-09-18T13:45:59.903Z,1013.43
2018-09-18T13:47:27.602Z,1013.40
2018-09-18T13:48:55.310Z,1013.37
2018-09-18T13:50:23.167Z,1013.40
2018-09-18T13:51:50.769Z,1013.37
2018-09-18T13:53:18.432Z,1013.36
2018-09-18T13:54:46.095Z,1013.35
2018-09-18T13:56:13.776Z,1013.33
2018-09-18T13:57:41.536Z,1013.30
2018-09-18T13:59:08.925Z,1013.28
2018-09-18T14:00:36.556Z,1013.27
2018-09-18T14:02:03.399Z,1013.25
2018-09-18T14:03:31.090Z,1013.21
2018-09-18T14:04:58.813Z,1013.20
2018-09-18T14:06:25.717Z,1013.20
2018-09-18T14:07:52.971Z,1013.21
2018-09-18T14:09:20.589Z,1013.18
2018-09-18T14:10:48.401Z,1013.15
2018-09-18T14:12:16.043Z,1013.14
2018-09-18T14:13:43.748Z,1013.11
2018-09-18T14:15:11.524Z,1013.08
2018-09-18T14:16:39.034Z,1013.08
2018-09-18T14:18:06.573Z,1013.08
2018-09-18T14:19:34.202Z,1013.09
2018-09-18T14:21:02.078Z,1013.07
2018-09-18T14:22:29.439Z,1013.08
2018-09-18T14:23:57.272Z,1013.07
2018-09-18T14:25:24.914Z,1013.11
2018-09-18T14:26:52.211Z,1013.11
2018-09-18T14:28:19.924Z,1013.11
2018-09-18T14:29:47.484Z,1013.10
2018-09-18T14:31:15.026Z,1013.12
2018-09-18T14:32:42.700Z,1013.09
2018-09-18T14:34:10.328Z,1013.08
2018-09-18T14:35:37.951Z,1013.10
2018-09-18T14:37:05.582Z,1013.10
2018-09-18T14:38:33.034Z,1013.09
2018-09-18T14:40:00.765Z,1013.09
2018-09-18T14:41:28.153Z,1013.06
2018-09-18T14:42:55.743Z,1013.04
2018-09-18T14:44:23.420Z,1013.08
2018-09-18T14:45:51.110Z,1013.07
2018-09-18T14:47:18.903Z,1013.06
2018-09-18T14:48:45.741Z,1013.11
2018-09-18T14:50:12.838Z,1013.09
2018-09-18T14:51:40.563Z,1013.09
2018-09-18T14:53:08.278Z,1013.08
2018-09-18T14:54:35.720Z,1013.07
2018-09-18T14:56:02.983Z,1013.06
2018-09-18T14:57:30.604Z,1013.01
2018-09-18T14:58:57.559Z,1012.99
2018-09-18T15:00:24.847Z,1012.99
2018-09-18T15:01:52.389Z,1013.00
2018-09-18T15:03:19.759Z,1013.04
2018-09-18T15:04:47.462Z,1013.02
2018-09-18T15:06:14.379Z,1013.02
2018-09-18T15:07:42.033Z,1012.98
2018-09-18T15:09:09.723Z,1012.97
2018-09-18T15:10:37.414Z,1012.98
2018-09-18T15:12:04.923Z,1012.95
2018-09-18T15:13:32.630Z,1012.92
2018-09-18T15:14:59.739Z,1012.89
2018-09-18T15:16:27.532Z,1012.87
2018-09-18T15:17:55.159Z,1012.87
2018-09-18T15:19:22.710Z,1012.84
2018-09-18T15:20:49.622Z,1012.85
2018-09-18T15:22:17.229Z,1012.88
2018-09-18T15:23:44.197Z,1012.86
2018-09-18T15:25:11.784Z,1012.91
2018-09-18T15:26:39.437Z,1012.89
2018-09-18T15:28:06.923Z,1012.88
2018-09-18T15:29:34.139Z,1012.89
2018-09-18T15:31:01.821Z,1012.88
2018-09-18T15:32:28.926Z,1012.92
2018-09-18T15:33:56.558Z,1012.90
2018-09-18T15:35:24.073Z,1012.93
2018-09-18T15:36:51.783Z,1012.94
2018-09-18T15:38:18.914Z,1012.95
2018-09-18T15:39:46.086Z,1012.95
2018-09-18T15:41:13.516Z,1012.95
2018-09-18T15:42:41.133Z,1012.95
2018-09-18T15:44:08.593Z,1012.93
2018-09-18T15:45:36.264Z,1012.96
2018-09-18T15:47:03.339Z,1012.95
2018-09-18T15:48:30.552Z,1012.99
2018-09-18T15:49:58.048Z,1012.99
2018-09-18T15:51:25.610Z,1013.01
2018-09-18T15:52:53.045Z,1012.98
2018-09-18T15:54:20.641Z,1012.94
2018-09-18T15:55:48.233Z,1012.94
2018-09-18T15:57:15.929Z,1012.98
2018-09-18T15:58:43.527Z,1012.96
2018-09-18T16:00:11.177Z,1012.95
2018-09-18T16:01:38.518Z,1012.98
2018-09-18T16:03:06.180Z,1012.98
2018-09-18T16:04:33.758Z,1013.00
2018-09-18T16:06:01.303Z,1012.98
2018-09-18T16:07:29.133Z,1012.99
2018-09-18T16:08:56.431Z,1012.97
2018-09-18T16:10:23.901Z,1012.96
2018-09-18T16:11:51.676Z,1012.95
2018-09-18T16:13:19.304Z,1012.94
2018-09-18T16:14:47.113Z,1012.94
2018-09-18T16:16:14.663Z,1012.98
2018-09-18T16:17:41.765Z,1013.00
2018-09-18T16:19:09.318Z,1012.98
2018-09-18T16:20:36.084Z,1012.96
2018-09-18T16:22:03.729Z,1012.93
2018-09-18T16:23:31.320Z,1012.94
2018-09-18T16:24:59.075Z,1012.96
2018-09-18T16:26:26.539Z,1012.96
2018-09-18T16:27:54.521Z,1012.96
2018-09-18T16:29:21.768Z,1012.95
2018-09-18T16:30:49.521Z,1012.94
2018-09-18T16:32:17.017Z,1012.93
2018-09-18T16:33:44.542Z,1012.92
2018-09-18T16:35:12.228Z,1012.91
2018-09-18T16:36:39.989Z,1012.93
2018-09-18T16:38:07.444Z,1012.92
2018-09-18T16:39:34.760Z,1012.92
2018-09-18T16:41:02.422Z,1012.89
2018-09-18T16:42:30.188Z,1012.89
2018-09-18T16:43:57.749Z,1012.89
2018-09-18T16:45:25.419Z,1012.91
2018-09-18T16:46:52.678Z,1012.94
2018-09-18T16:48:19.642Z,1012.96
2018-09-18T16:49:47.219Z,1012.95
2018-09-18T16:51:14.854Z,1012.95
2018-09-18T16:52:42.545Z,1012.90
2018-09-18T16:54:09.880Z,1012.91
2018-09-18T16:55:36.945Z,1012.89
2018-09-18T16:57:04.340Z,1012.89
2018-09-18T16:58:32.038Z,1012.88
2018-09-18T16:59:59.779Z,1012.86
2018-09-18T17:01:27.457Z,1012.86
2018-09-18T17:02:55.076Z,1012.89
2018-09-18T17:04:22.758Z,1012.93
2018-09-18T17:05:49.776Z,1012.95
2018-09-18T17:07:17.317Z,1012.94
2018-09-18T17:08:44.244Z,1012.90
2018-09-18T17:10:12.010Z,1012.90
2018-09-18T17:11:39.364Z,1012.92
2018-09-18T17:13:06.941Z,1012.97
2018-09-18T17:14:34.455Z,1013.01
2018-09-18T17:16:01.327Z,1013.02
2018-09-18T17:17:28.890Z,1012.99
2018-09-18T17:18:56.586Z,1012.96
2018-09-18T17:20:23.382Z,1012.90
2018-09-18T17:21:50.950Z,1012.90
2018-09-18T17:23:17.724Z,1012.95
2018-09-18T17:24:44.852Z,1012.95
2018-09-18T17:26:12.122Z,1012.98
2018-09-18T17:27:39.842Z,1013.00
2018-09-18T17:29:07.380Z,1013.01
2018-09-18T17:30:34.621Z,1013.00
2018-09-18T17:32:02.085Z,1012.99
2018-09-18T17:33:29.692Z,1012.98
2018-09-18T17:34:57.130Z,1013.00
2018-09-18T17:36:23.964Z,1013.02
2018-09-18T17:37:51.270Z,1013.04